createdAt,value
2022-10-11T00:04:10.866Z,76.28
2022-10-11T00:09:13.108Z,76.55
2022-10-11T00:14:16.606Z,77.34
2022-10-11T00:19:18.864Z,77.37
2022-10-11T00:24:20.905Z,78.31
2022-10-11T00:29:24.281Z,78.49
2022-10-11T00:34:26.245Z,79.88
2022-10-11T00:39:28.331Z,79.92
2022-10-11T00:44:33.237Z,80.98
2022-10-11T00:49:37.508Z,81.28
2022-10-11T00:54:43.421Z,82.83
2022-10-11T00:59:50.618Z,83.31
2022-10-11T01:05:11.339Z,83.80
2022-10-11T01:10:15.648Z,84.89
2022-10-11T01:15:25.545Z,86.08
2022-10-11T01:20:37.386Z,87.00
2022-10-11T01:25:51.899Z,87.12
2022-10-11T01:31:01.069Z,88.01
2022-10-11T01:36:11.628Z,88.23
2022-10-11T01:41:19.104Z,89.27
2022-10-11T01:46:24.157Z,89.24
2022-10-11T01:51:29.302Z,89.88
2022-10-11T01:56:47.902Z,90.18
2022-10-11T02:01:59.548Z,91.59
2022-10-11T02:07:07.504Z,91.69
2022-10-11T02:12:12.520Z,92.29
2022-10-11T02:17:18.553Z,93.01
2022-10-11T02:22:24.809Z,93.75
2022-10-11T02:27:30.396Z,94.03
2022-10-11T02:32:36.172Z,95.03
2022-10-11T02:37:43.025Z,95.39
2022-10-11T02:42:53.841Z,95.26
2022-10-11T02:47:58.404Z,95.54
2022-10-11T02:53:00.304Z,96.21
2022-10-11T02:58:02.978Z,96.35
2022-10-11T03:03:05.949Z,96.50
2022-10-11T03:08:08.399Z,97.09
2022-10-11T03:13:12.835Z,97.63
2022-10-11T03:18:18.186Z,97.74
2022-10-11T03:23:20.190Z,97.65
2022-10-11T03:28:22.499Z,98.18
2022-10-11T03:33:25.827Z,98.42
2022-10-11T03:38:27.966Z,98.85
2022-10-11T03:43:29.644Z,98.78
2022-10-11T03:48:33.441Z,98.60
2022-10-11T03:53:35.599Z,98.73
2022-10-11T03:58:37.892Z,98.51
2022-10-11T04:03:41.421Z,98.89
2022-10-11T04:08:43.116Z,98.91
2022-10-11T04:13:46.226Z,99.12
2022-10-11T04:18:49.524Z,99.16
2022-10-11T04:23:51.599Z,99.31
2022-10-11T04:28:53.650Z,99.49
2022-10-11T04:33:56.697Z,99.02
2022-10-11T04:38:58.982Z,99.41
2022-10-11T04:44:01.412Z,99.19
2022-10-11T04:49:04.430Z,99.17
2022-10-11T04:54:06.087Z,99.23
2022-10-11T04:59:08.007Z,99.24
2022-10-11T05:04:11.030Z,99.25
2022-10-11T05:09:13.215Z,99.34
2022-10-11T05:14:14.968Z,99.32
2022-10-11T05:19:18.366Z,99.23
2022-10-11T05:24:20.409Z,98.94
2022-10-11T05:29:22.079Z,99.12
2022-10-11T05:34:25.189Z,98.84
2022-10-11T05:39:26.957Z,99.37
2022-10-11T05:44:29.203Z,99.05
2022-10-11T05:49:32.405Z,99.11
2022-10-11T05:54:34.323Z,99.09
2022-10-11T05:59:36.497Z,99.24
2022-10-11T06:04:39.969Z,99.17
2022-10-11T06:09:41.617Z,99.43
2022-10-11T06:14:43.320Z,99.28
2022-10-11T06:19:57.599Z,99.18
2022-10-11T06:24:59.775Z,98.42
2022-10-11T06:30:01.942Z,98.05
2022-10-11T06:35:06.522Z,97.81
2022-10-11T06:40:09.090Z,97.44
2022-10-11T06:45:11.119Z,96.93
2022-10-11T06:50:14.410Z,95.98
2022-10-11T06:55:16.500Z,95.11
2022-10-11T07:00:18.886Z,94.68
2022-10-11T07:05:22.274Z,94.15
2022-10-11T07:10:24.256Z,92.50
2022-10-11T07:15:26.409Z,91.41
2022-10-11T07:20:29.535Z,90.82
2022-10-11T07:25:31.599Z,90.19
2022-10-11T07:30:33.289Z,89.40
2022-10-11T07:35:36.746Z,89.15
2022-10-11T07:40:42.384Z,88.19
2022-10-11T07:45:44.845Z,87.59
2022-10-11T07:50:48.330Z,87.35
2022-10-11T07:55:49.945Z,86.77
2022-10-11T08:00:53.441Z,86.03
2022-10-11T08:06:00.155Z,84.83
2022-10-11T08:11:02.027Z,84.04
2022-10-11T08:16:10.158Z,82.56
2022-10-11T08:21:15.790Z,82.96
2022-10-11T08:26:17.666Z,82.50
2022-10-11T08:31:19.659Z,82.13
2022-10-11T08:36:23.373Z,80.64
2022-10-11T08:41:34.896Z,80.83
2022-10-11T08:46:39.005Z,79.56
2022-10-11T08:51:47.525Z,78.12
2022-10-11T08:56:50.641Z,76.75
2022-10-11T09:01:58.888Z,76.28
2022-10-11T09:07:07.363Z,75.87
2022-10-11T09:12:18.708Z,74.84
2022-10-11T09:17:36.154Z,74.93
2022-10-11T09:22:49.898Z,74.91
2022-10-11T09:28:05.443Z,71.48
2022-10-11T09:33:17.171Z,70.88
2022-10-11T09:38:31.402Z,68.55
2022-10-11T09:43:33.279Z,68.19
2022-10-11T09:48:40.311Z,60.72
2022-10-11T09:54:06.658Z,43.75
2022-10-11T09:59:25.944Z,42.81
2022-10-11T10:04:28.121Z,39.52
2022-10-11T10:09:31.639Z,38.69
2022-10-11T10:14:33.799Z,36.56
2022-10-11T10:19:45.090Z,36.51
2022-10-11T10:24:50.165Z,36.26
2022-10-11T10:30:19.359Z,37.66
2022-10-11T10:35:38.308Z,34.24
2022-10-11T10:40:45.625Z,34.51
2022-10-11T10:46:09.884Z,34.46
2022-10-11T10:51:21.973Z,41.82
2022-10-11T10:56:31.559Z,35.06
2022-10-11T11:01:38.031Z,37.13
2022-10-11T11:06:48.980Z,40.05
2022-10-11T11:12:03.484Z,44.38
2022-10-11T11:17:15.018Z,46.06
2022-10-11T11:22:32.484Z,47.28
2022-10-11T11:27:49.927Z,50.40
2022-10-11T11:33:04.030Z,48.83
2022-10-11T11:38:14.871Z,48.03
2022-10-11T11:43:25.150Z,48.82
2022-10-11T11:48:27.382Z,48.42
2022-10-11T11:53:43.842Z,49.86
2022-10-11T11:58:53.664Z,48.38
2022-10-11T12:04:01.434Z,49.30
2022-10-11T12:09:08.138Z,48.35
2022-10-11T12:14:29.637Z,47.08
2022-10-11T12:19:31.850Z,44.47
2022-10-11T12:24:55.818Z,45.36
2022-10-11T12:29:59.212Z,47.46
2022-10-11T12:35:39.626Z,46.14
2022-10-11T12:40:43.090Z,48.35
2022-10-11T12:45:46.741Z,44.83
2022-10-11T12:51:02.953Z,43.99
2022-10-11T12:56:11.521Z,46.48
2022-10-11T13:01:25.520Z,45.55
2022-10-11T13:06:30.158Z,47.18
2022-10-11T13:11:35.776Z,48.65
2022-10-11T13:16:56.373Z,50.21
2022-10-11T13:22:00.555Z,51.43
2022-10-11T13:27:03.169Z,53.16
2022-10-11T13:32:13.539Z,52.00
2022-10-11T13:37:18.925Z,53.02
2022-10-11T13:42:25.974Z,53.34
2022-10-11T13:47:31.705Z,52.28
2022-10-11T13:52:34.366Z,49.12
2022-10-11T13:57:39.746Z,49.79
2022-10-11T14:02:48.337Z,50.21
2022-10-11T14:07:50.127Z,50.52
2022-10-11T14:13:21.025Z,49.88
2022-10-11T14:18:43.214Z,50.99
2022-10-11T14:23:45.009Z,53.10
2022-10-11T14:28:51.875Z,52.59
2022-10-11T14:33:56.046Z,50.89
2022-10-11T14:38:57.750Z,49.93
2022-10-11T14:43:59.356Z,50.10
2022-10-11T14:49:02.330Z,49.89
2022-10-11T14:54:04.735Z,49.29
2022-10-11T14:59:07.108Z,50.70
2022-10-11T15:04:10.626Z,51.69
2022-10-11T15:09:12.800Z,51.14
2022-10-11T15:14:14.711Z,51.70
2022-10-11T15:19:20.788Z,51.19
2022-10-11T15:24:22.743Z,51.00
2022-10-11T15:29:24.756Z,53.34
2022-10-11T15:34:28.579Z,54.61
2022-10-11T15:39:31.452Z,54.17
2022-10-11T15:44:34.522Z,56.92
2022-10-11T15:49:38.758Z,56.56
2022-10-11T15:54:41.315Z,59.28
2022-10-11T15:59:43.175Z,60.72
2022-10-11T16:04:47.195Z,64.30
2022-10-11T16:09:49.660Z,65.33
2022-10-11T16:14:52.307Z,66.84
2022-10-11T16:19:55.636Z,68.34
2022-10-11T16:24:57.913Z,69.66
2022-10-11T16:30:00.475Z,70.68
2022-10-11T16:35:04.426Z,72.97
2022-10-11T16:40:08.849Z,74.23
2022-10-11T16:45:11.205Z,76.08
2022-10-11T16:50:14.505Z,77.50
2022-10-11T16:55:16.683Z,78.41
2022-10-11T17:00:19.060Z,78.98
2022-10-11T17:05:22.505Z,80.02
2022-10-11T17:10:24.587Z,80.63
2022-10-11T17:15:26.760Z,81.13
2022-10-11T17:20:30.380Z,81.11
2022-10-11T17:25:32.289Z,81.60
2022-10-11T17:30:34.239Z,81.76
2022-10-11T17:35:37.234Z,82.76
2022-10-11T17:40:38.982Z,83.08
2022-10-11T17:45:40.825Z,83.84
2022-10-11T17:50:49.667Z,84.04
2022-10-11T17:55:52.595Z,84.48
2022-10-11T18:00:54.326Z,85.43
2022-10-11T18:05:57.487Z,85.35
2022-10-11T18:10:59.327Z,85.93
2022-10-11T18:16:01.467Z,86.02
2022-10-11T18:21:05.060Z,86.44
2022-10-11T18:26:11.529Z,86.58
2022-10-11T18:31:16.454Z,86.28
2022-10-11T18:36:22.193Z,87.65
2022-10-11T18:41:26.925Z,87.90
2022-10-11T18:46:29.667Z,88.08
2022-10-11T18:51:35.405Z,87.88
2022-10-11T18:56:38.210Z,88.21
2022-10-11T19:01:43.205Z,88.87
2022-10-11T19:06:48.653Z,88.95
2022-10-11T19:11:51.937Z,88.71
2022-10-11T19:16:56.153Z,88.93
2022-10-11T19:22:00.885Z,89.89
2022-10-11T19:27:03.224Z,89.59
2022-10-11T19:32:05.926Z,90.08
2022-10-11T19:37:10.328Z,90.17
2022-10-11T19:42:12.559Z,90.36
2022-10-11T19:47:15.203Z,90.24
2022-10-11T19:52:20.403Z,90.60
2022-10-11T19:57:22.531Z,90.71
2022-10-11T20:02:24.631Z,90.88
2022-10-11T20:07:28.231Z,90.85
2022-10-11T20:12:31.163Z,92.01
2022-10-11T20:17:34.012Z,89.89
2022-10-11T20:22:37.917Z,89.21
2022-10-11T20:27:39.818Z,87.78
2022-10-11T20:32:41.816Z,86.61
2022-10-11T20:37:44.829Z,85.48
2022-10-11T20:42:46.683Z,84.33
2022-10-11T20:47:48.375Z,83.91
2022-10-11T20:52:51.379Z,83.95
2022-10-11T20:57:53.557Z,84.91
2022-10-11T21:02:55.333Z,85.45
2022-10-11T21:07:58.284Z,84.89
2022-10-11T21:13:00.529Z,84.42
2022-10-11T21:18:02.435Z,83.64
2022-10-11T21:23:05.649Z,85.14
2022-10-11T21:28:07.958Z,85.40
2022-10-11T21:33:09.605Z,85.21
2022-10-11T21:38:12.673Z,85.32
2022-10-11T21:43:14.616Z,86.38
2022-10-11T21:48:16.511Z,86.34
2022-10-11T21:53:19.475Z,86.86
2022-10-11T21:58:21.400Z,86.86
2022-10-11T22:03:23.542Z,87.12
2022-10-11T22:08:26.881Z,87.88
2022-10-11T22:13:30.799Z,87.10
2022-10-11T22:18:33.806Z,87.78
2022-10-11T22:23:37.271Z,87.40
2022-10-11T22:28:39.042Z,87.95
2022-10-11T22:33:41.117Z,88.66
2022-10-11T22:38:45.069Z,88.72
2022-10-11T22:43:46.921Z,87.84
2022-10-11T22:48:48.959Z,88.17
2022-10-11T22:53:52.033Z,87.76
2022-10-11T22:58:54.083Z,88.29
2022-10-11T23:03:56.003Z,87.91
2022-10-11T23:08:59.231Z,88.12
2022-10-11T23:14:00.912Z,87.68
2022-10-11T23:19:02.917Z,88.29
2022-10-11T23:24:07.183Z,89.06
2022-10-11T23:29:08.910Z,88.96
2022-10-11T23:34:10.579Z,88.58
2022-10-11T23:39:14.036Z,88.92
2022-10-11T23:44:16.094Z,89.09
2022-10-11T23:49:18.159Z,89.41
2022-10-11T23:54:21.177Z,90.04
2022-10-11T23:59:22.792Z,90.19
